createdAt,value
2022-12-28T00:02:45.094Z,19.76
2022-12-28T00:05:51.943Z,21.44
2022-12-28T00:09:01.121Z,21.48
2022-12-28T00:12:09.171Z,23.63
2022-12-28T00:15:15.278Z,28.06
2022-12-28T00:18:22.110Z,31.14
2022-12-28T00:21:29.262Z,32.93
2022-12-28T00:24:38.788Z,26.26
2022-12-28T00:27:44.842Z,26.44
2022-12-28T00:30:51.834Z,25.47
2022-12-28T00:33:58.147Z,25.41
2022-12-28T00:37:08.571Z,22.51
2022-12-28T00:40:23.915Z,20.50
2022-12-28T00:43:31.195Z,18.62
2022-12-28T00:46:38.720Z,17.71
2022-12-28T00:49:45.668Z,16.74
2022-12-28T00:52:51.769Z,16.50
2022-12-28T00:56:09.232Z,15.83
2022-12-28T00:59:15.801Z,15.42
2022-12-28T01:02:22.836Z,14.77
2022-12-28T01:05:29.516Z,15.56
2022-12-28T01:08:36.643Z,16.49
2022-12-28T01:11:45.534Z,16.77
2022-12-28T01:14:52.454Z,17.36
2022-12-28T01:17:58.470Z,18.54
2022-12-28T01:21:13.565Z,18.22
2022-12-28T01:24:22.115Z,18.22
2022-12-28T01:27:31.513Z,17.94
2022-12-28T01:30:38.973Z,17.74
2022-12-28T01:33:47.351Z,17.56
2022-12-28T01:36:54.212Z,17.37
2022-12-28T01:40:01.211Z,17.71
2022-12-28T01:43:29.853Z,18.40
2022-12-28T01:46:45.767Z,17.70
2022-12-28T01:50:06.862Z,18.58
2022-12-28T01:53:14.726Z,17.96
2022-12-28T01:56:21.833Z,17.78
2022-12-28T01:59:39.498Z,18.53
2022-12-28T02:02:55.785Z,18.08
2022-12-28T02:06:09.574Z,19.05
2022-12-28T02:09:27.140Z,18.82
2022-12-28T02:12:36.297Z,19.07
2022-12-28T02:15:49.903Z,19.01
2022-12-28T02:18:59.345Z,19.22
2022-12-28T02:22:46.616Z,18.85
2022-12-28T02:26:38.812Z,17.18
2022-12-28T02:30:10.486Z,17.13
2022-12-28T02:33:30.336Z,16.65
2022-12-28T02:36:53.088Z,17.14
2022-12-28T02:40:09.982Z,18.06
2022-12-28T02:43:18.297Z,18.27
2022-12-28T02:46:45.623Z,19.02
2022-12-28T02:50:04.853Z,19.18
2022-12-28T02:53:51.599Z,18.29
2022-12-28T02:57:13.921Z,19.03
2022-12-28T03:00:24.709Z,18.96
2022-12-28T03:03:55.723Z,19.50
2022-12-28T03:07:28.635Z,18.11
2022-12-28T03:10:49.135Z,18.29
2022-12-28T03:14:06.275Z,18.09
2022-12-28T03:17:28.843Z,18.56
2022-12-28T03:20:49.949Z,18.07
2022-12-28T03:24:13.255Z,18.13
2022-12-28T03:27:38.289Z,18.15
2022-12-28T03:31:07.340Z,17.45
2022-12-28T03:34:18.477Z,16.59
2022-12-28T03:37:41.995Z,15.58
2022-12-28T03:40:57.698Z,14.53
2022-12-28T03:44:13.238Z,13.53
2022-12-28T03:47:27.044Z,12.99
2022-12-28T03:50:39.890Z,12.33
2022-12-28T03:53:51.346Z,12.04
2022-12-28T03:57:01.166Z,11.81
2022-12-28T04:00:14.176Z,11.30
2022-12-28T04:03:23.717Z,11.24
2022-12-28T04:06:30.072Z,10.38
2022-12-28T04:09:40.264Z,9.80
2022-12-28T04:12:50.394Z,10.03
2022-12-28T04:16:14.107Z,10.43
2022-12-28T04:19:21.853Z,10.11
2022-12-28T04:22:29.014Z,10.22
2022-12-28T04:25:40.086Z,10.43
2022-12-28T04:28:48.494Z,10.51
2022-12-28T04:32:03.506Z,11.30
2022-12-28T04:35:11.287Z,11.52
2022-12-28T04:38:26.934Z,10.94
2022-12-28T04:41:36.423Z,10.54
2022-12-28T04:44:42.528Z,10.35
2022-12-28T04:47:49.468Z,11.58
2022-12-28T04:50:56.792Z,13.08
2022-12-28T04:54:03.891Z,16.23
2022-12-28T04:57:12.553Z,12.40
2022-12-28T05:00:19.713Z,10.14
2022-12-28T05:03:25.735Z,9.16
2022-12-28T05:06:32.654Z,9.08
2022-12-28T05:09:38.761Z,9.20
2022-12-28T05:12:48.291Z,9.60
2022-12-28T05:15:54.404Z,9.24
2022-12-28T05:19:01.850Z,10.95
2022-12-28T05:22:12.010Z,11.66
2022-12-28T05:25:19.077Z,11.56
2022-12-28T05:28:29.216Z,12.65
2022-12-28T05:31:36.156Z,15.51
2022-12-28T05:34:42.326Z,20.16
2022-12-28T05:37:49.178Z,21.30
2022-12-28T05:40:55.147Z,18.70
2022-12-28T05:44:04.618Z,16.65
2022-12-28T05:47:10.859Z,16.02
2022-12-28T05:50:18.068Z,16.94
2022-12-28T05:53:24.099Z,16.65
2022-12-28T05:56:33.224Z,16.32
2022-12-28T05:59:41.868Z,17.27
2022-12-28T06:02:48.806Z,18.52
2022-12-28T06:05:54.909Z,17.17
2022-12-28T06:09:02.066Z,14.86
2022-12-28T06:12:08.957Z,16.47
2022-12-28T06:15:18.598Z,16.07
2022-12-28T06:18:24.838Z,14.22
2022-12-28T06:21:34.415Z,13.80
2022-12-28T06:24:40.503Z,13.96
2022-12-28T06:27:47.420Z,13.41
2022-12-28T06:30:56.036Z,13.55
2022-12-28T06:34:05.574Z,12.92
2022-12-28T06:37:12.400Z,12.28
2022-12-28T06:40:21.912Z,12.25
2022-12-28T06:43:36.069Z,12.13
2022-12-28T06:46:45.658Z,11.94
2022-12-28T06:49:51.687Z,12.92
2022-12-28T06:52:58.653Z,12.51
2022-12-28T06:56:08.539Z,12.33
2022-12-28T06:59:15.396Z,12.48
2022-12-28T07:02:24.133Z,12.43
2022-12-28T07:05:31.062Z,12.78
2022-12-28T07:08:37.807Z,12.38
2022-12-28T07:11:45.624Z,13.52
2022-12-28T07:14:51.606Z,14.13
2022-12-28T07:18:02.143Z,14.76
2022-12-28T07:21:13.603Z,14.85
2022-12-28T07:24:20.414Z,13.67
2022-12-28T07:27:26.470Z,13.92
2022-12-28T07:30:33.327Z,16.06
2022-12-28T07:33:43.367Z,14.38
2022-12-28T07:36:52.108Z,15.22
2022-12-28T07:39:58.123Z,18.67
2022-12-28T07:43:04.950Z,15.14
2022-12-28T07:46:15.024Z,13.54
2022-12-28T07:49:24.552Z,13.24
2022-12-28T07:52:30.567Z,14.10
2022-12-28T07:55:37.551Z,12.53
2022-12-28T08:01:54.672Z,14.51
2022-12-28T08:05:03.537Z,15.99
2022-12-28T08:08:12.877Z,14.44
2022-12-28T08:11:22.297Z,14.39
2022-12-28T08:14:29.346Z,13.75
2022-12-28T08:17:35.505Z,14.46
2022-12-28T08:20:45.067Z,14.49
2022-12-28T08:23:52.622Z,14.16
2022-12-28T08:26:59.525Z,13.65
2022-12-28T08:30:05.616Z,13.27
2022-12-28T08:33:12.543Z,13.31
2022-12-28T08:36:21.282Z,13.36
2022-12-28T08:39:28.155Z,13.20
2022-12-28T08:42:34.347Z,12.47
2022-12-28T08:45:41.272Z,12.10
2022-12-28T08:48:49.385Z,12.47
2022-12-28T08:51:59.049Z,11.51
2022-12-28T08:55:05.105Z,10.81
2022-12-28T08:58:11.997Z,10.86
2022-12-28T09:01:21.275Z,10.94
2022-12-28T09:04:28.222Z,11.78
2022-12-28T09:07:36.848Z,11.36
2022-12-28T09:10:43.686Z,11.82
2022-12-28T09:13:50.205Z,11.77
2022-12-28T09:16:57.729Z,12.25
2022-12-28T09:20:03.835Z,11.94
2022-12-28T09:23:13.552Z,12.40
2022-12-28T09:26:23.291Z,12.27
2022-12-28T09:29:30.179Z,11.23
2022-12-28T09:32:36.250Z,11.72
2022-12-28T09:35:43.087Z,10.97
2022-12-28T09:38:53.390Z,12.01
2022-12-28T09:42:06.155Z,13.36
2022-12-28T09:45:16.266Z,12.53
2022-12-28T09:48:28.035Z,12.00
2022-12-28T09:51:44.667Z,11.83
2022-12-28T09:54:54.300Z,11.73
2022-12-28T09:58:03.529Z,12.47
2022-12-28T10:01:19.660Z,14.06
2022-12-28T10:04:26.991Z,13.75
2022-12-28T10:07:34.741Z,12.01
2022-12-28T10:10:49.149Z,12.64
2022-12-28T10:14:01.492Z,13.50
2022-12-28T10:17:09.761Z,12.04
2022-12-28T10:20:23.405Z,12.75
2022-12-28T10:23:41.235Z,13.43
2022-12-28T10:27:04.099Z,12.85
2022-12-28T10:30:24.178Z,13.99
2022-12-28T10:33:31.374Z,14.01
2022-12-28T10:36:37.673Z,14.27
2022-12-28T10:39:54.848Z,15.47
2022-12-28T10:43:10.166Z,13.80
2022-12-28T10:46:22.968Z,16.78
2022-12-28T10:49:34.802Z,16.01
2022-12-28T10:52:42.398Z,20.97
2022-12-28T10:55:49.084Z,24.06
2022-12-28T10:59:28.090Z,24.33
2022-12-28T11:02:35.960Z,23.94
2022-12-28T11:05:42.936Z,17.62
2022-12-28T11:09:17.779Z,17.27
2022-12-28T11:12:32.118Z,15.09
2022-12-28T11:15:44.392Z,13.29
2022-12-28T11:18:51.687Z,11.98
2022-12-28T11:21:57.912Z,11.86
2022-12-28T11:25:08.645Z,10.41
2022-12-28T11:28:20.130Z,11.32
2022-12-28T11:31:40.999Z,10.41
2022-12-28T11:34:48.756Z,9.86
2022-12-28T11:38:00.018Z,9.55
2022-12-28T11:41:06.268Z,11.70
2022-12-28T11:44:46.269Z,13.50
2022-12-28T11:47:54.983Z,15.38
2022-12-28T11:51:08.121Z,10.43
2022-12-28T11:54:42.871Z,11.06
2022-12-28T11:57:50.023Z,11.47
2022-12-28T12:00:57.008Z,8.26
2022-12-28T12:04:43.552Z,8.20
2022-12-28T12:07:51.580Z,13.01
2022-12-28T12:11:33.598Z,10.16
2022-12-28T12:14:47.200Z,7.52
2022-12-28T12:18:05.037Z,7.92
2022-12-28T12:21:33.211Z,9.16
2022-12-28T12:24:54.656Z,7.91
2022-12-28T12:28:09.883Z,9.37
2022-12-28T12:31:27.339Z,12.15
2022-12-28T12:34:47.809Z,13.34
2022-12-28T12:38:02.781Z,11.43
2022-12-28T12:41:32.251Z,14.67
2022-12-28T12:44:55.512Z,10.58
2022-12-28T12:48:30.850Z,11.37
2022-12-28T12:51:53.781Z,14.95
2022-12-28T12:55:23.123Z,10.69
2022-12-28T12:58:44.763Z,10.45
2022-12-28T13:02:11.860Z,9.06
2022-12-28T13:05:25.492Z,9.81
2022-12-28T13:08:43.790Z,11.71
2022-12-28T13:11:54.313Z,11.74
2022-12-28T13:15:10.801Z,14.69
2022-12-28T13:21:52.273Z,13.01
2022-12-28T13:24:59.479Z,13.65
2022-12-28T13:28:09.330Z,14.18
2022-12-28T13:31:24.691Z,13.83
2022-12-28T13:34:33.904Z,14.53
2022-12-28T13:37:40.912Z,10.86
2022-12-28T13:40:56.478Z,14.01
2022-12-28T13:44:42.898Z,18.17
2022-12-28T13:47:55.878Z,15.04
2022-12-28T13:51:03.089Z,14.67
2022-12-28T13:54:13.568Z,12.66
2022-12-28T14:00:58.416Z,12.17
2022-12-28T14:04:51.248Z,12.31
2022-12-28T14:07:40.881Z,13.06
2022-12-28T14:10:51.457Z,12.83
2022-12-28T14:14:00.745Z,13.20
2022-12-28T14:17:12.535Z,12.84
2022-12-28T14:20:19.640Z,12.27
2022-12-28T14:23:29.740Z,11.69
2022-12-28T14:26:38.269Z,13.47
2022-12-28T14:30:00.738Z,16.30
2022-12-28T14:33:28.596Z,16.25
2022-12-28T14:36:55.477Z,16.89
2022-12-28T14:40:31.422Z,16.80
2022-12-28T14:43:58.675Z,17.54
2022-12-28T14:47:06.419Z,24.16
2022-12-28T14:50:27.211Z,25.81
2022-12-28T14:53:35.017Z,25.93
2022-12-28T14:56:43.275Z,17.40
2022-12-28T15:00:02.300Z,19.64
2022-12-28T15:03:22.133Z,20.05
2022-12-28T15:06:35.001Z,22.15
2022-12-28T15:09:41.942Z,22.87
2022-12-28T15:12:48.848Z,23.99
2022-12-28T15:16:01.559Z,25.31
2022-12-28T15:19:08.846Z,24.04
2022-12-28T15:22:17.783Z,25.44
2022-12-28T15:25:25.533Z,27.16
2022-12-28T15:28:31.667Z,25.66
2022-12-28T15:31:38.612Z,24.26
2022-12-28T15:34:44.886Z,23.64
2022-12-28T15:37:54.540Z,24.86
2022-12-28T15:41:01.141Z,26.89
2022-12-28T15:44:09.358Z,28.57
2022-12-28T15:47:15.532Z,29.75
2022-12-28T15:50:22.437Z,25.72
2022-12-28T15:53:31.118Z,25.64
2022-12-28T15:56:41.507Z,24.95
2022-12-28T15:59:47.646Z,25.88
2022-12-28T16:02:55.707Z,23.98
2022-12-28T16:06:04.125Z,21.37
2022-12-28T16:09:15.567Z,18.98
2022-12-28T16:12:21.664Z,17.64
2022-12-28T16:15:28.668Z,18.19
2022-12-28T16:18:34.866Z,15.86
2022-12-28T16:21:41.835Z,16.12
2022-12-28T16:24:51.190Z,17.06
2022-12-28T16:27:58.107Z,17.67
2022-12-28T16:31:05.485Z,18.36
2022-12-28T16:34:16.722Z,20.85
2022-12-28T16:37:22.790Z,19.55
2022-12-28T16:40:32.367Z,17.74
2022-12-28T16:43:38.485Z,18.66
2022-12-28T16:46:45.683Z,19.60
2022-12-28T16:49:51.780Z,22.01
2022-12-28T16:53:01.074Z,22.82
2022-12-28T16:56:10.715Z,23.66
2022-12-28T16:59:20.722Z,25.08
2022-12-28T17:02:27.076Z,24.35
2022-12-28T17:05:37.002Z,21.64
2022-12-28T17:08:43.211Z,19.23
2022-12-28T17:11:54.225Z,22.81
2022-12-28T17:15:04.788Z,23.86
2022-12-28T17:18:12.903Z,23.76
2022-12-28T17:21:19.001Z,24.44
2022-12-28T17:24:26.224Z,23.38
2022-12-28T17:27:35.051Z,22.37
2022-12-28T17:30:41.936Z,20.75
2022-12-28T17:33:48.857Z,21.29
2022-12-28T17:36:55.833Z,23.34
2022-12-28T17:40:01.975Z,23.42
2022-12-28T17:43:11.628Z,24.49
2022-12-28T17:46:18.417Z,24.64
2022-12-28T17:49:25.452Z,23.24
2022-12-28T17:52:31.883Z,23.25
2022-12-28T17:55:40.226Z,25.54
2022-12-28T17:58:49.756Z,26.68
2022-12-28T18:01:57.089Z,31.80
2022-12-28T18:05:03.395Z,33.45
2022-12-28T18:08:10.384Z,31.62
2022-12-28T18:11:16.542Z,32.44
2022-12-28T18:14:26.257Z,33.69
2022-12-28T18:17:32.558Z,33.64
2022-12-28T18:20:40.084Z,37.54
2022-12-28T18:23:48.932Z,42.52
2022-12-28T18:26:55.821Z,34.66
2022-12-28T18:30:04.518Z,29.63
2022-12-28T18:33:11.436Z,29.14
2022-12-28T18:36:18.699Z,26.47
2022-12-28T18:39:25.764Z,24.44
2022-12-28T18:42:31.978Z,22.75
2022-12-28T18:45:41.513Z,20.44
2022-12-28T18:48:47.659Z,18.82
2022-12-28T18:51:54.584Z,17.45
2022-12-28T18:55:00.781Z,18.84
2022-12-28T18:58:07.797Z,18.88
2022-12-28T19:01:55.941Z,17.16
2022-12-28T19:04:48.312Z,17.63
2022-12-28T19:07:54.521Z,17.63
2022-12-28T19:11:01.642Z,18.19
2022-12-28T19:14:08.897Z,17.98
2022-12-28T19:17:18.419Z,17.45
2022-12-28T19:20:24.817Z,17.45
2022-12-28T19:23:31.815Z,16.71
2022-12-28T19:26:39.569Z,17.71
2022-12-28T19:29:46.512Z,16.74
2022-12-28T19:32:55.467Z,15.32
2022-12-28T19:36:02.385Z,17.83
2022-12-28T19:39:09.059Z,18.38
2022-12-28T19:42:16.104Z,15.85
2022-12-28T19:45:22.254Z,14.55
2022-12-28T19:48:31.793Z,14.75
2022-12-28T19:51:37.902Z,14.92
2022-12-28T19:54:45.621Z,15.53
2022-12-28T19:57:51.650Z,14.93
2022-12-28T20:00:58.677Z,14.31
2022-12-28T20:04:13.377Z,16.09
2022-12-28T20:07:21.152Z,17.12
2022-12-28T20:10:29.135Z,16.87
2022-12-28T20:13:39.073Z,16.83
2022-12-28T20:16:46.589Z,15.31
2022-12-28T20:19:56.278Z,14.93
2022-12-28T20:23:02.873Z,14.87
2022-12-28T20:26:10.227Z,17.02
2022-12-28T20:29:16.946Z,17.60
2022-12-28T20:32:24.022Z,16.52
2022-12-28T20:35:32.826Z,12.35
2022-12-28T20:38:40.046Z,13.15
2022-12-28T20:41:58.542Z,12.27
2022-12-28T20:45:05.631Z,12.41
2022-12-28T20:48:11.718Z,10.86
2022-12-28T20:51:22.135Z,11.32
2022-12-28T20:54:28.713Z,11.73
2022-12-28T20:57:35.670Z,10.97
2022-12-28T21:00:42.574Z,12.07
2022-12-28T21:03:49.851Z,13.44
2022-12-28T21:06:58.787Z,13.83
2022-12-28T21:10:07.444Z,12.09
2022-12-28T21:13:13.743Z,12.35
2022-12-28T21:16:22.079Z,11.53
2022-12-28T21:19:28.265Z,11.13
2022-12-28T21:22:37.697Z,11.08
2022-12-28T21:25:43.891Z,10.67
2022-12-28T21:28:51.005Z,11.06
2022-12-28T21:31:58.036Z,10.25
2022-12-28T21:35:05.041Z,12.52
2022-12-28T21:38:13.930Z,12.77
2022-12-28T21:41:44.447Z,12.15
2022-12-28T21:44:50.508Z,9.93
2022-12-28T21:47:57.474Z,9.30
2022-12-28T21:51:29.805Z,9.08
2022-12-28T21:54:40.082Z,9.10
2022-12-28T21:57:46.133Z,9.16
2022-12-28T22:01:05.463Z,9.51
2022-12-28T22:04:28.264Z,12.05
2022-12-28T22:07:38.114Z,10.15
2022-12-28T22:10:59.059Z,8.50
2022-12-28T22:14:06.484Z,8.76
2022-12-28T22:17:14.642Z,8.66
2022-12-28T22:20:21.857Z,8.84
2022-12-28T22:23:34.241Z,9.15
2022-12-28T22:26:44.336Z,9.22
2022-12-28T22:29:50.392Z,9.01
2022-12-28T22:32:57.941Z,9.93
2022-12-28T22:36:12.985Z,13.01
2022-12-28T22:39:19.978Z,12.25
2022-12-28T22:42:28.807Z,12.80
2022-12-28T22:45:35.825Z,11.57
2022-12-28T22:48:42.454Z,11.20
2022-12-28T22:51:51.023Z,12.53
2022-12-28T22:54:57.105Z,12.65
2022-12-28T22:58:06.550Z,10.68
2022-12-28T23:01:16.297Z,11.03
2022-12-28T23:04:23.878Z,11.67
2022-12-28T23:07:29.951Z,13.23
2022-12-28T23:10:36.830Z,15.09
2022-12-28T23:13:45.602Z,16.53
2022-12-28T23:16:50.763Z,16.56
2022-12-28T23:20:09.181Z,17.62
2022-12-28T23:23:28.326Z,20.23
2022-12-28T23:26:46.775Z,24.86
2022-12-28T23:29:56.221Z,19.72
2022-12-28T23:33:02.431Z,18.38
2022-12-28T23:36:10.699Z,13.94
2022-12-28T23:39:16.752Z,12.55
2022-12-28T23:42:23.762Z,12.51
2022-12-28T23:45:32.397Z,14.29
2022-12-28T23:48:39.261Z,15.68
2022-12-28T23:51:47.883Z,15.96
2022-12-28T23:54:54.734Z,16.99
2022-12-28T23:58:00.804Z,16.19
